sensor_id;sensor_type;location;lat;lon;timestamp;P1;durP1;ratioP1;P2;durP2;ratioP2
14526;SDS011;7350;51.208;4.238;2023-04-26T00:01:30;1.85;;;1.40;;
14526;SDS011;7350;51.208;4.238;2023-04-26T00:03:59;2.92;;;1.73;;
14526;SDS011;7350;51.208;4.238;2023-04-26T00:06:28;2.03;;;1.60;;
14526;SDS011;7350;51.208;4.238;2023-04-26T00:08:55;2.20;;;1.52;;
14526;SDS011;7350;51.208;4.238;2023-04-26T00:11:22;2.03;;;1.80;;
14526;SDS011;7350;51.208;4.238;2023-04-26T00:13:48;2.22;;;1.80;;
14526;SDS011;7350;51.208;4.238;2023-04-26T00:16:15;3.00;;;1.80;;
14526;SDS011;7350;51.208;4.238;2023-04-26T00:18:44;3.47;;;2.10;;
14526;SDS011;7350;51.208;4.238;2023-04-26T00:21:11;2.47;;;1.90;;
14526;SDS011;7350;51.208;4.238;2023-04-26T00:23:40;2.53;;;1.80;;
14526;SDS011;7350;51.208;4.238;2023-04-26T00:26:07;2.25;;;1.63;;
14526;SDS011;7350;51.208;4.238;2023-04-26T00:28:34;2.97;;;1.73;;
14526;SDS011;7350;51.208;4.238;2023-04-26T00:31:01;2.65;;;2.00;;
14526;SDS011;7350;51.208;4.238;2023-04-26T00:33:28;3.22;;;1.90;;
14526;SDS011;7350;51.208;4.238;2023-04-26T00:35:55;2.33;;;1.70;;
14526;SDS011;7350;51.208;4.238;2023-04-26T00:38:21;2.97;;;1.50;;
14526;SDS011;7350;51.208;4.238;2023-04-26T00:40:50;2.72;;;2.08;;
14526;SDS011;7350;51.208;4.238;2023-04-26T00:43:17;1.98;;;1.75;;
14526;SDS011;7350;51.208;4.238;2023-04-26T00:45:44;2.65;;;1.95;;
14526;SDS011;7350;51.208;4.238;2023-04-26T00:48:11;2.97;;;1.90;;
14526;SDS011;7350;51.208;4.238;2023-04-26T00:50:38;3.15;;;1.80;;
14526;SDS011;7350;51.208;4.238;2023-04-26T00:53:05;2.90;;;1.75;;
14526;SDS011;7350;51.208;4.238;2023-04-26T00:55:33;4.15;;;1.98;;
14526;SDS011;7350;51.208;4.238;2023-04-26T00:58:02;2.20;;;1.77;;
14526;SDS011;7350;51.208;4.238;2023-04-26T01:00:29;2.75;;;1.90;;
14526;SDS011;7350;51.208;4.238;2023-04-26T01:02:56;2.58;;;1.80;;
14526;SDS011;7350;51.208;4.238;2023-04-26T01:05:23;2.42;;;1.90;;
14526;SDS011;7350;51.208;4.238;2023-04-26T01:07:50;2.65;;;1.60;;
14526;SDS011;7350;51.208;4.238;2023-04-26T01:10:17;2.28;;;1.85;;
14526;SDS011;7350;51.208;4.238;2023-04-26T01:12:44;2.47;;;1.92;;
14526;SDS011;7350;51.208;4.238;2023-04-26T01:15:13;3.28;;;1.77;;
14526;SDS011;7350;51.208;4.238;2023-04-26T01:17:40;2.92;;;2.03;;
14526;SDS011;7350;51.208;4.238;2023-04-26T01:20:12;3.28;;;1.90;;
14526;SDS011;7350;51.208;4.238;2023-04-26T01:22:40;3.03;;;2.05;;
14526;SDS011;7350;51.208;4.238;2023-04-26T01:25:07;3.67;;;1.77;;
14526;SDS011;7350;51.208;4.238;2023-04-26T01:27:37;3.00;;;1.98;;
14526;SDS011;7350;51.208;4.238;2023-04-26T01:30:06;3.08;;;2.05;;
14526;SDS011;7350;51.208;4.238;2023-04-26T01:32:34;3.47;;;1.90;;
14526;SDS011;7350;51.208;4.238;2023-04-26T01:35:01;2.33;;;1.90;;
14526;SDS011;7350;51.208;4.238;2023-04-26T01:37:29;3.33;;;1.70;;
14526;SDS011;7350;51.208;4.238;2023-04-26T01:39:57;2.85;;;1.77;;
14526;SDS011;7350;51.208;4.238;2023-04-26T01:42:25;1.85;;;1.60;;
14526;SDS011;7350;51.208;4.238;2023-04-26T01:44:51;3.05;;;2.22;;
14526;SDS011;7350;51.208;4.238;2023-04-26T01:47:18;2.50;;;2.00;;
14526;SDS011;7350;51.208;4.238;2023-04-26T01:49:45;2.20;;;1.73;;
14526;SDS011;7350;51.208;4.238;2023-04-26T01:52:12;2.88;;;1.60;;
14526;SDS011;7350;51.208;4.238;2023-04-26T01:54:39;1.83;;;1.67;;
14526;SDS011;7350;51.208;4.238;2023-04-26T01:57:08;2.70;;;2.25;;
14526;SDS011;7350;51.208;4.238;2023-04-26T01:59:35;4.45;;;2.03;;
14526;SDS011;7350;51.208;4.238;2023-04-26T02:02:01;2.30;;;1.70;;
14526;SDS011;7350;51.208;4.238;2023-04-26T02:04:29;3.95;;;2.30;;
14526;SDS011;7350;51.208;4.238;2023-04-26T02:06:56;2.80;;;1.75;;
14526;SDS011;7350;51.208;4.238;2023-04-26T02:09:23;2.95;;;1.85;;
14526;SDS011;7350;51.208;4.238;2023-04-26T02:11:50;2.40;;;1.90;;
14526;SDS011;7350;51.208;4.238;2023-04-26T02:14:18;2.60;;;2.00;;
14526;SDS011;7350;51.208;4.238;2023-04-26T02:16:45;2.97;;;2.00;;
14526;SDS011;7350;51.208;4.238;2023-04-26T02:19:12;2.72;;;1.95;;
14526;SDS011;7350;51.208;4.238;2023-04-26T02:21:49;3.58;;;2.05;;
14526;SDS011;7350;51.208;4.238;2023-04-26T02:24:17;2.05;;;1.70;;
14526;SDS011;7350;51.208;4.238;2023-04-26T02:26:44;2.20;;;1.80;;
14526;SDS011;7350;51.208;4.238;2023-04-26T02:29:11;2.80;;;1.80;;
14526;SDS011;7350;51.208;4.238;2023-04-26T02:31:39;1.85;;;1.60;;
14526;SDS011;7350;51.208;4.238;2023-04-26T02:34:06;2.28;;;1.98;;
14526;SDS011;7350;51.208;4.238;2023-04-26T02:36:33;4.07;;;2.10;;
14526;SDS011;7350;51.208;4.238;2023-04-26T02:39:00;3.10;;;1.90;;
14526;SDS011;7350;51.208;4.238;2023-04-26T02:41:27;2.30;;;1.70;;
14526;SDS011;7350;51.208;4.238;2023-04-26T02:43:57;3.05;;;1.90;;
14526;SDS011;7350;51.208;4.238;2023-04-26T02:46:24;2.42;;;1.70;;
14526;SDS011;7350;51.208;4.238;2023-04-26T02:48:52;3.17;;;1.90;;
14526;SDS011;7350;51.208;4.238;2023-04-26T02:51:19;2.88;;;1.92;;
14526;SDS011;7350;51.208;4.238;2023-04-26T02:53:47;2.33;;;1.95;;
14526;SDS011;7350;51.208;4.238;2023-04-26T02:56:14;2.42;;;1.75;;
14526;SDS011;7350;51.208;4.238;2023-04-26T02:58:41;3.33;;;1.70;;
14526;SDS011;7350;51.208;4.238;2023-04-26T03:01:08;2.25;;;1.80;;
14526;SDS011;7350;51.208;4.238;2023-04-26T03:03:36;2.85;;;1.70;;
14526;SDS011;7350;51.208;4.238;2023-04-26T03:06:05;3.10;;;2.20;;
14526;SDS011;7350;51.208;4.238;2023-04-26T03:08:32;2.53;;;1.90;;
14526;SDS011;7350;51.208;4.238;2023-04-26T03:11:00;1.95;;;1.80;;
14526;SDS011;7350;51.208;4.238;2023-04-26T03:13:27;2.22;;;1.92;;
14526;SDS011;7350;51.208;4.238;2023-04-26T03:15:55;3.40;;;1.80;;
14526;SDS011;7350;51.208;4.238;2023-04-26T03:18:22;2.92;;;1.95;;
14526;SDS011;7350;51.208;4.238;2023-04-26T03:20:49;2.55;;;1.95;;
14526;SDS011;7350;51.208;4.238;2023-04-26T03:23:17;2.97;;;1.90;;
14526;SDS011;7350;51.208;4.238;2023-04-26T03:25:46;2.20;;;2.00;;
14526;SDS011;7350;51.208;4.238;2023-04-26T03:28:13;3.40;;;1.98;;
14526;SDS011;7350;51.208;4.238;2023-04-26T03:30:40;2.72;;;1.65;;
14526;SDS011;7350;51.208;4.238;2023-04-26T03:33:06;3.13;;;1.98;;
14526;SDS011;7350;51.208;4.238;2023-04-26T03:35:33;2.33;;;1.88;;
14526;SDS011;7350;51.208;4.238;2023-04-26T03:38:00;2.85;;;2.20;;
14526;SDS011;7350;51.208;4.238;2023-04-26T03:40:29;3.28;;;1.90;;
14526;SDS011;7350;51.208;4.238;2023-04-26T03:42:56;3.15;;;1.70;;
14526;SDS011;7350;51.208;4.238;2023-04-26T03:45:23;2.42;;;1.90;;
14526;SDS011;7350;51.208;4.238;2023-04-26T03:47:50;2.70;;;1.73;;
14526;SDS011;7350;51.208;4.238;2023-04-26T03:50:19;3.95;;;2.17;;
14526;SDS011;7350;51.208;4.238;2023-04-26T03:52:46;2.75;;;2.17;;
14526;SDS011;7350;51.208;4.238;2023-04-26T03:55:13;3.67;;;2.20;;
14526;SDS011;7350;51.208;4.238;2023-04-26T03:57:42;3.05;;;2.40;;
14526;SDS011;7350;51.208;4.238;2023-04-26T04:00:09;2.60;;;1.90;;
14526;SDS011;7350;51.208;4.238;2023-04-26T04:02:38;2.17;;;1.95;;
14526;SDS011;7350;51.208;4.238;2023-04-26T04:05:05;2.20;;;2.00;;
14526;SDS011;7350;51.208;4.238;2023-04-26T04:07:33;2.10;;;1.80;;
14526;SDS011;7350;51.208;4.238;2023-04-26T04:10:00;3.00;;;1.90;;
14526;SDS011;7350;51.208;4.238;2023-04-26T04:12:27;3.63;;;2.38;;
14526;SDS011;7350;51.208;4.238;2023-04-26T04:14:55;3.80;;;2.20;;
14526;SDS011;7350;51.208;4.238;2023-04-26T04:17:22;2.90;;;1.80;;
14526;SDS011;7350;51.208;4.238;2023-04-26T04:19:49;3.92;;;2.00;;
14526;SDS011;7350;51.208;4.238;2023-04-26T04:22:16;2.75;;;1.67;;
14526;SDS011;7350;51.208;4.238;2023-04-26T04:24:43;2.72;;;1.58;;
14526;SDS011;7350;51.208;4.238;2023-04-26T04:27:11;4.07;;;1.90;;
14526;SDS011;7350;51.208;4.238;2023-04-26T04:29:39;3.15;;;2.10;;
14526;SDS011;7350;51.208;4.238;2023-04-26T04:32:07;2.47;;;1.83;;
14526;SDS011;7350;51.208;4.238;2023-04-26T04:34:35;5.97;;;2.15;;
14526;SDS011;7350;51.208;4.238;2023-04-26T04:37:02;4.97;;;1.65;;
14526;SDS011;7350;51.208;4.238;2023-04-26T04:39:29;3.85;;;1.83;;
14526;SDS011;7350;51.208;4.238;2023-04-26T04:41:56;2.83;;;1.80;;
14526;SDS011;7350;51.208;4.238;2023-04-26T04:44:24;3.55;;;1.80;;
14526;SDS011;7350;51.208;4.238;2023-04-26T04:46:51;3.33;;;1.70;;
14526;SDS011;7350;51.208;4.238;2023-04-26T04:49:20;4.95;;;1.80;;
14526;SDS011;7350;51.208;4.238;2023-04-26T04:51:48;2.67;;;1.55;;
14526;SDS011;7350;51.208;4.238;2023-04-26T04:54:16;3.42;;;2.17;;
14526;SDS011;7350;51.208;4.238;2023-04-26T04:56:43;4.65;;;1.65;;
14526;SDS011;7350;51.208;4.238;2023-04-26T04:59:11;3.53;;;1.70;;
14526;SDS011;7350;51.208;4.238;2023-04-26T05:01:38;5.55;;;2.17;;
14526;SDS011;7350;51.208;4.238;2023-04-26T05:04:05;4.00;;;1.65;;
14526;SDS011;7350;51.208;4.238;2023-04-26T05:06:33;4.22;;;1.65;;
14526;SDS011;7350;51.208;4.238;2023-04-26T05:09:00;2.63;;;1.65;;
14526;SDS011;7350;51.208;4.238;2023-04-26T05:11:29;3.88;;;2.35;;
14526;SDS011;7350;51.208;4.238;2023-04-26T05:13:56;4.10;;;1.73;;
14526;SDS011;7350;51.208;4.238;2023-04-26T05:16:23;2.78;;;1.90;;
14526;SDS011;7350;51.208;4.238;2023-04-26T05:18:50;3.90;;;1.77;;
14526;SDS011;7350;51.208;4.238;2023-04-26T05:21:17;4.80;;;1.92;;
14526;SDS011;7350;51.208;4.238;2023-04-26T05:23:49;3.63;;;2.10;;
14526;SDS011;7350;51.208;4.238;2023-04-26T05:26:16;3.72;;;2.20;;
14526;SDS011;7350;51.208;4.238;2023-04-26T05:28:43;3.05;;;1.70;;
14526;SDS011;7350;51.208;4.238;2023-04-26T05:31:10;2.20;;;1.65;;
14526;SDS011;7350;51.208;4.238;2023-04-26T05:33:37;3.17;;;1.77;;
14526;SDS011;7350;51.208;4.238;2023-04-26T05:36:05;4.63;;;1.58;;
14526;SDS011;7350;51.208;4.238;2023-04-26T05:38:33;3.75;;;1.67;;
14526;SDS011;7350;51.208;4.238;2023-04-26T05:41:02;3.70;;;1.60;;
14526;SDS011;7350;51.208;4.238;2023-04-26T05:43:32;3.72;;;1.95;;
14526;SDS011;7350;51.208;4.238;2023-04-26T05:46:02;3.72;;;2.05;;
14526;SDS011;7350;51.208;4.238;2023-04-26T05:48:31;2.30;;;1.77;;
14526;SDS011;7350;51.208;4.238;2023-04-26T05:51:01;5.65;;;2.42;;
14526;SDS011;7350;51.208;4.238;2023-04-26T05:53:28;3.15;;;2.25;;
14526;SDS011;7350;51.208;4.238;2023-04-26T05:55:55;2.78;;;1.60;;
14526;SDS011;7350;51.208;4.238;2023-04-26T05:58:25;4.05;;;1.95;;
14526;SDS011;7350;51.208;4.238;2023-04-26T06:00:52;2.95;;;1.70;;
14526;SDS011;7350;51.208;4.238;2023-04-26T06:03:19;5.70;;;2.20;;
14526;SDS011;7350;51.208;4.238;2023-04-26T06:05:46;2.50;;;1.80;;
14526;SDS011;7350;51.208;4.238;2023-04-26T06:08:13;3.55;;;2.22;;
14526;SDS011;7350;51.208;4.238;2023-04-26T06:10:42;3.63;;;2.05;;
14526;SDS011;7350;51.208;4.238;2023-04-26T06:13:11;4.28;;;2.47;;
14526;SDS011;7350;51.208;4.238;2023-04-26T06:15:39;4.20;;;2.05;;
14526;SDS011;7350;51.208;4.238;2023-04-26T06:18:06;3.28;;;2.28;;
14526;SDS011;7350;51.208;4.238;2023-04-26T06:20:33;3.42;;;2.60;;
14526;SDS011;7350;51.208;4.238;2023-04-26T06:23:00;3.83;;;2.28;;
14526;SDS011;7350;51.208;4.238;2023-04-26T06:25:27;4.68;;;2.60;;
14526;SDS011;7350;51.208;4.238;2023-04-26T06:27:54;2.95;;;2.45;;
14526;SDS011;7350;51.208;4.238;2023-04-26T06:30:22;5.35;;;2.60;;
14526;SDS011;7350;51.208;4.238;2023-04-26T06:32:51;5.75;;;2.50;;
14526;SDS011;7350;51.208;4.238;2023-04-26T06:35:18;3.22;;;2.53;;
14526;SDS011;7350;51.208;4.238;2023-04-26T06:37:47;4.43;;;2.33;;
14526;SDS011;7350;51.208;4.238;2023-04-26T06:40:14;3.28;;;2.50;;
14526;SDS011;7350;51.208;4.238;2023-04-26T06:42:41;4.88;;;2.50;;
14526;SDS011;7350;51.208;4.238;2023-04-26T06:45:09;3.45;;;2.50;;
14526;SDS011;7350;51.208;4.238;2023-04-26T06:47:36;4.50;;;2.90;;
14526;SDS011;7350;51.208;4.238;2023-04-26T06:50:05;6.25;;;2.80;;
14526;SDS011;7350;51.208;4.238;2023-04-26T06:52:33;4.00;;;2.40;;
14526;SDS011;7350;51.208;4.238;2023-04-26T06:55:00;5.13;;;2.70;;
14526;SDS011;7350;51.208;4.238;2023-04-26T06:57:28;4.60;;;3.00;;
14526;SDS011;7350;51.208;4.238;2023-04-26T06:59:55;4.07;;;2.50;;
14526;SDS011;7350;51.208;4.238;2023-04-26T07:02:22;4.85;;;2.70;;
14526;SDS011;7350;51.208;4.238;2023-04-26T07:04:49;4.22;;;2.60;;
14526;SDS011;7350;51.208;4.238;2023-04-26T07:07:17;5.25;;;2.80;;
14526;SDS011;7350;51.208;4.238;2023-04-26T07:09:44;5.10;;;2.80;;
14526;SDS011;7350;51.208;4.238;2023-04-26T07:12:11;4.80;;;2.75;;
14526;SDS011;7350;51.208;4.238;2023-04-26T07:14:39;6.07;;;2.80;;
14526;SDS011;7350;51.208;4.238;2023-04-26T07:17:07;6.78;;;3.17;;
14526;SDS011;7350;51.208;4.238;2023-04-26T07:19:34;8.73;;;3.22;;
14526;SDS011;7350;51.208;4.238;2023-04-26T07:22:04;5.30;;;2.90;;
14526;SDS011;7350;51.208;4.238;2023-04-26T07:24:33;3.38;;;2.75;;
14526;SDS011;7350;51.208;4.238;2023-04-26T07:27:02;5.38;;;2.60;;
14526;SDS011;7350;51.208;4.238;2023-04-26T07:29:29;6.57;;;2.97;;
14526;SDS011;7350;51.208;4.238;2023-04-26T07:31:58;4.13;;;2.80;;
14526;SDS011;7350;51.208;4.238;2023-04-26T07:34:25;4.20;;;2.97;;
14526;SDS011;7350;51.208;4.238;2023-04-26T07:36:52;5.63;;;2.92;;
14526;SDS011;7350;51.208;4.238;2023-04-26T07:39:20;5.60;;;3.00;;
14526;SDS011;7350;51.208;4.238;2023-04-26T07:41:48;4.72;;;2.88;;
14526;SDS011;7350;51.208;4.238;2023-04-26T07:44:15;4.10;;;2.83;;
14526;SDS011;7350;51.208;4.238;2023-04-26T07:46:42;4.25;;;2.78;;
14526;SDS011;7350;51.208;4.238;2023-04-26T07:49:10;4.45;;;2.90;;
14526;SDS011;7350;51.208;4.238;2023-04-26T07:51:37;3.85;;;2.75;;
14526;SDS011;7350;51.208;4.238;2023-04-26T07:54:04;5.30;;;3.20;;
14526;SDS011;7350;51.208;4.238;2023-04-26T07:56:31;5.28;;;3.33;;
14526;SDS011;7350;51.208;4.238;2023-04-26T07:58:59;4.05;;;2.80;;
14526;SDS011;7350;51.208;4.238;2023-04-26T08:01:26;4.25;;;2.88;;
14526;SDS011;7350;51.208;4.238;2023-04-26T08:03:53;5.45;;;2.60;;
14526;SDS011;7350;51.208;4.238;2023-04-26T08:06:20;4.55;;;2.97;;
14526;SDS011;7350;51.208;4.238;2023-04-26T08:08:47;4.65;;;3.13;;
14526;SDS011;7350;51.208;4.238;2023-04-26T08:11:14;6.18;;;2.75;;
14526;SDS011;7350;51.208;4.238;2023-04-26T08:13:42;4.43;;;3.20;;
14526;SDS011;7350;51.208;4.238;2023-04-26T08:16:10;4.13;;;2.70;;
14526;SDS011;7350;51.208;4.238;2023-04-26T08:18:37;4.57;;;2.78;;
14526;SDS011;7350;51.208;4.238;2023-04-26T08:21:04;3.83;;;2.67;;
14526;SDS011;7350;51.208;4.238;2023-04-26T08:23:32;4.32;;;2.45;;
14526;SDS011;7350;51.208;4.238;2023-04-26T08:26:00;4.00;;;2.53;;
14526;SDS011;7350;51.208;4.238;2023-04-26T08:28:28;4.10;;;2.53;;
14526;SDS011;7350;51.208;4.238;2023-04-26T08:30:55;4.75;;;2.60;;
14526;SDS011;7350;51.208;4.238;2023-04-26T08:33:23;4.07;;;2.60;;
14526;SDS011;7350;51.208;4.238;2023-04-26T08:35:50;4.05;;;2.58;;
14526;SDS011;7350;51.208;4.238;2023-04-26T08:38:17;2.70;;;2.30;;
14526;SDS011;7350;51.208;4.238;2023-04-26T08:40:46;4.55;;;2.42;;
14526;SDS011;7350;51.208;4.238;2023-04-26T08:43:14;2.92;;;2.53;;
14526;SDS011;7350;51.208;4.238;2023-04-26T08:45:42;3.08;;;2.33;;
14526;SDS011;7350;51.208;4.238;2023-04-26T08:48:11;3.88;;;2.50;;
14526;SDS011;7350;51.208;4.238;2023-04-26T08:50:41;4.18;;;2.50;;
14526;SDS011;7350;51.208;4.238;2023-04-26T08:53:11;4.90;;;2.97;;
14526;SDS011;7350;51.208;4.238;2023-04-26T08:55:41;4.88;;;2.60;;
14526;SDS011;7350;51.208;4.238;2023-04-26T08:58:12;5.68;;;3.13;;
14526;SDS011;7350;51.208;4.238;2023-04-26T09:00:40;6.45;;;3.08;;
14526;SDS011;7350;51.208;4.238;2023-04-26T09:03:09;4.25;;;2.60;;
14526;SDS011;7350;51.208;4.238;2023-04-26T09:05:37;4.25;;;2.63;;
14526;SDS011;7350;51.208;4.238;2023-04-26T09:08:09;5.30;;;2.75;;
14526;SDS011;7350;51.208;4.238;2023-04-26T09:10:41;4.25;;;2.60;;
14526;SDS011;7350;51.208;4.238;2023-04-26T09:13:08;3.20;;;2.25;;
14526;SDS011;7350;51.208;4.238;2023-04-26T09:15:36;5.38;;;2.72;;
14526;SDS011;7350;51.208;4.238;2023-04-26T09:18:16;5.25;;;2.42;;
14526;SDS011;7350;51.208;4.238;2023-04-26T09:20:44;4.35;;;2.42;;
14526;SDS011;7350;51.208;4.238;2023-04-26T09:23:13;5.70;;;2.50;;
14526;SDS011;7350;51.208;4.238;2023-04-26T09:25:41;3.70;;;2.42;;
14526;SDS011;7350;51.208;4.238;2023-04-26T09:28:20;4.70;;;2.53;;
14526;SDS011;7350;51.208;4.238;2023-04-26T09:30:48;3.55;;;2.10;;
14526;SDS011;7350;51.208;4.238;2023-04-26T09:33:15;4.57;;;2.00;;
14526;SDS011;7350;51.208;4.238;2023-04-26T09:35:43;4.78;;;2.10;;
14526;SDS011;7350;51.208;4.238;2023-04-26T09:38:10;3.17;;;2.22;;
14526;SDS011;7350;51.208;4.238;2023-04-26T09:40:41;3.15;;;1.90;;
14526;SDS011;7350;51.208;4.238;2023-04-26T09:43:10;2.53;;;2.05;;
14526;SDS011;7350;51.208;4.238;2023-04-26T09:45:44;7.07;;;2.80;;
14526;SDS011;7350;51.208;4.238;2023-04-26T09:48:14;4.28;;;2.40;;
14526;SDS011;7350;51.208;4.238;2023-04-26T09:50:46;5.55;;;2.33;;
14526;SDS011;7350;51.208;4.238;2023-04-26T09:53:26;4.20;;;2.10;;
14526;SDS011;7350;51.208;4.238;2023-04-26T09:55:55;6.90;;;3.13;;
14526;SDS011;7350;51.208;4.238;2023-04-26T09:58:23;5.97;;;2.40;;
14526;SDS011;7350;51.208;4.238;2023-04-26T10:00:50;6.05;;;2.33;;
14526;SDS011;7350;51.208;4.238;2023-04-26T10:03:18;5.68;;;2.47;;
14526;SDS011;7350;51.208;4.238;2023-04-26T10:05:45;5.03;;;2.20;;
14526;SDS011;7350;51.208;4.238;2023-04-26T10:08:13;3.22;;;2.50;;
14526;SDS011;7350;51.208;4.238;2023-04-26T10:10:42;5.65;;;2.70;;
14526;SDS011;7350;51.208;4.238;2023-04-26T10:13:10;3.60;;;2.50;;
14526;SDS011;7350;51.208;4.238;2023-04-26T10:15:38;4.50;;;2.35;;
14526;SDS011;7350;51.208;4.238;2023-04-26T10:18:05;3.67;;;2.08;;
14526;SDS011;7350;51.208;4.238;2023-04-26T10:20:32;7.47;;;2.80;;
14526;SDS011;7350;51.208;4.238;2023-04-26T10:23:05;3.30;;;2.05;;
14526;SDS011;7350;51.208;4.238;2023-04-26T10:25:39;3.38;;;2.20;;
14526;SDS011;7350;51.208;4.238;2023-04-26T10:28:07;3.95;;;2.30;;
14526;SDS011;7350;51.208;4.238;2023-04-26T10:33:20;4.97;;;2.00;;
14526;SDS011;7350;51.208;4.238;2023-04-26T10:38:37;6.05;;;2.10;;
14526;SDS011;7350;51.208;4.238;2023-04-26T10:43:56;3.97;;;2.42;;
14526;SDS011;7350;51.208;4.238;2023-04-26T10:46:32;5.13;;;2.50;;
14526;SDS011;7350;51.208;4.238;2023-04-26T10:54:47;3.78;;;2.10;;
14526;SDS011;7350;51.208;4.238;2023-04-26T10:57:17;4.97;;;2.58;;
14526;SDS011;7350;51.208;4.238;2023-04-26T11:03:08;3.47;;;2.22;;
14526;SDS011;7350;51.208;4.238;2023-04-26T11:05:53;4.50;;;2.40;;
14526;SDS011;7350;51.208;4.238;2023-04-26T11:08:23;5.13;;;2.35;;
14526;SDS011;7350;51.208;4.238;2023-04-26T11:10:52;3.20;;;2.17;;
14526;SDS011;7350;51.208;4.238;2023-04-26T11:13:36;2.88;;;2.22;;
14526;SDS011;7350;51.208;4.238;2023-04-26T11:16:04;2.92;;;2.42;;
14526;SDS011;7350;51.208;4.238;2023-04-26T11:18:33;4.13;;;2.40;;
14526;SDS011;7350;51.208;4.238;2023-04-26T11:21:01;3.28;;;2.58;;
14526;SDS011;7350;51.208;4.238;2023-04-26T11:23:30;3.03;;;2.10;;
14526;SDS011;7350;51.208;4.238;2023-04-26T11:25:57;3.15;;;2.35;;
14526;SDS011;7350;51.208;4.238;2023-04-26T11:28:24;4.32;;;2.58;;
14526;SDS011;7350;51.208;4.238;2023-04-26T11:30:52;3.50;;;2.17;;
14526;SDS011;7350;51.208;4.238;2023-04-26T11:33:20;3.40;;;2.13;;
14526;SDS011;7350;51.208;4.238;2023-04-26T11:35:47;5.47;;;2.70;;
14526;SDS011;7350;51.208;4.238;2023-04-26T11:38:15;2.30;;;2.10;;
14526;SDS011;7350;51.208;4.238;2023-04-26T11:40:42;10.63;;;3.58;;
14526;SDS011;7350;51.208;4.238;2023-04-26T11:43:09;6.00;;;2.55;;
14526;SDS011;7350;51.208;4.238;2023-04-26T11:45:37;6.25;;;2.90;;
14526;SDS011;7350;51.208;4.238;2023-04-26T11:48:06;11.63;;;3.65;;
14526;SDS011;7350;51.208;4.238;2023-04-26T11:50:37;6.85;;;3.00;;
14526;SDS011;7350;51.208;4.238;2023-04-26T11:53:07;10.10;;;4.25;;
14526;SDS011;7350;51.208;4.238;2023-04-26T11:55:34;7.78;;;4.15;;
14526;SDS011;7350;51.208;4.238;2023-04-26T11:58:08;8.45;;;3.97;;
14526;SDS011;7350;51.208;4.238;2023-04-26T12:00:36;10.43;;;4.10;;
14526;SDS011;7350;51.208;4.238;2023-04-26T12:03:21;7.32;;;3.67;;
14526;SDS011;7350;51.208;4.238;2023-04-26T12:05:52;7.13;;;3.47;;
14526;SDS011;7350;51.208;4.238;2023-04-26T12:08:22;6.25;;;3.60;;
14526;SDS011;7350;51.208;4.238;2023-04-26T12:10:49;7.05;;;3.38;;
14526;SDS011;7350;51.208;4.238;2023-04-26T12:13:17;6.80;;;3.45;;
14526;SDS011;7350;51.208;4.238;2023-04-26T12:15:45;8.88;;;3.55;;
14526;SDS011;7350;51.208;4.238;2023-04-26T12:18:14;6.75;;;3.67;;
14526;SDS011;7350;51.208;4.238;2023-04-26T12:20:43;5.05;;;3.90;;
14526;SDS011;7350;51.208;4.238;2023-04-26T12:23:12;8.52;;;3.88;;
14526;SDS011;7350;51.208;4.238;2023-04-26T12:25:40;8.63;;;4.00;;
14526;SDS011;7350;51.208;4.238;2023-04-26T12:28:17;11.70;;;3.90;;
14526;SDS011;7350;51.208;4.238;2023-04-26T12:30:44;8.70;;;3.95;;
14526;SDS011;7350;51.208;4.238;2023-04-26T12:33:11;6.13;;;3.65;;
14526;SDS011;7350;51.208;4.238;2023-04-26T12:35:38;6.93;;;3.53;;
14526;SDS011;7350;51.208;4.238;2023-04-26T12:38:07;7.50;;;3.85;;
14526;SDS011;7350;51.208;4.238;2023-04-26T12:40:35;9.32;;;3.60;;
14526;SDS011;7350;51.208;4.238;2023-04-26T12:43:02;9.20;;;3.53;;
14526;SDS011;7350;51.208;4.238;2023-04-26T12:45:29;7.05;;;3.20;;
14526;SDS011;7350;51.208;4.238;2023-04-26T12:47:56;7.22;;;3.40;;
14526;SDS011;7350;51.208;4.238;2023-04-26T12:50:23;9.10;;;3.45;;
14526;SDS011;7350;51.208;4.238;2023-04-26T12:52:50;9.93;;;4.17;;
14526;SDS011;7350;51.208;4.238;2023-04-26T12:55:18;6.07;;;3.30;;
14526;SDS011;7350;51.208;4.238;2023-04-26T12:57:46;9.48;;;3.67;;
14526;SDS011;7350;51.208;4.238;2023-04-26T13:00:14;8.60;;;3.63;;
14526;SDS011;7350;51.208;4.238;2023-04-26T13:02:42;5.80;;;3.28;;
14526;SDS011;7350;51.208;4.238;2023-04-26T13:05:10;6.53;;;3.20;;
14526;SDS011;7350;51.208;4.238;2023-04-26T13:07:38;7.55;;;4.00;;
14526;SDS011;7350;51.208;4.238;2023-04-26T13:10:06;5.43;;;3.20;;
14526;SDS011;7350;51.208;4.238;2023-04-26T13:12:36;4.57;;;3.17;;
14526;SDS011;7350;51.208;4.238;2023-04-26T13:15:04;7.90;;;3.40;;
14526;SDS011;7350;51.208;4.238;2023-04-26T13:17:32;8.20;;;3.33;;
14526;SDS011;7350;51.208;4.238;2023-04-26T13:20:00;10.48;;;4.18;;
14526;SDS011;7350;51.208;4.238;2023-04-26T13:22:28;8.20;;;3.50;;
14526;SDS011;7350;51.208;4.238;2023-04-26T13:24:55;8.73;;;4.50;;
14526;SDS011;7350;51.208;4.238;2023-04-26T13:27:22;8.30;;;4.15;;
14526;SDS011;7350;51.208;4.238;2023-04-26T13:29:50;10.98;;;4.65;;
14526;SDS011;7350;51.208;4.238;2023-04-26T13:32:18;8.10;;;4.68;;
14526;SDS011;7350;51.208;4.238;2023-04-26T13:34:46;9.20;;;4.13;;
14526;SDS011;7350;51.208;4.238;2023-04-26T13:37:13;6.88;;;4.68;;
14526;SDS011;7350;51.208;4.238;2023-04-26T13:39:42;8.25;;;4.82;;
14526;SDS011;7350;51.208;4.238;2023-04-26T13:42:09;6.22;;;4.35;;
14526;SDS011;7350;51.208;4.238;2023-04-26T13:44:36;6.13;;;5.15;;
14526;SDS011;7350;51.208;4.238;2023-04-26T13:47:05;7.07;;;4.80;;
14526;SDS011;7350;51.208;4.238;2023-04-26T13:49:32;6.50;;;4.30;;
14526;SDS011;7350;51.208;4.238;2023-04-26T13:51:59;7.13;;;4.53;;
14526;SDS011;7350;51.208;4.238;2023-04-26T13:54:26;8.85;;;4.22;;
14526;SDS011;7350;51.208;4.238;2023-04-26T13:56:53;9.23;;;4.82;;
14526;SDS011;7350;51.208;4.238;2023-04-26T13:59:20;7.65;;;5.30;;
14526;SDS011;7350;51.208;4.238;2023-04-26T14:01:47;7.07;;;5.30;;
14526;SDS011;7350;51.208;4.238;2023-04-26T14:04:15;6.85;;;5.90;;
14526;SDS011;7350;51.208;4.238;2023-04-26T14:06:42;8.00;;;5.18;;
14526;SDS011;7350;51.208;4.238;2023-04-26T14:09:09;10.35;;;5.45;;
14526;SDS011;7350;51.208;4.238;2023-04-26T14:11:36;7.78;;;5.28;;
14526;SDS011;7350;51.208;4.238;2023-04-26T14:14:03;13.60;;;5.32;;
14526;SDS011;7350;51.208;4.238;2023-04-26T14:16:30;7.07;;;4.60;;
14526;SDS011;7350;51.208;4.238;2023-04-26T14:18:57;6.25;;;4.88;;
14526;SDS011;7350;51.208;4.238;2023-04-26T14:21:25;8.45;;;4.75;;
14526;SDS011;7350;51.208;4.238;2023-04-26T14:23:53;6.90;;;5.00;;
14526;SDS011;7350;51.208;4.238;2023-04-26T14:26:20;6.90;;;4.55;;
14526;SDS011;7350;51.208;4.238;2023-04-26T14:28:50;7.75;;;4.95;;
14526;SDS011;7350;51.208;4.238;2023-04-26T14:31:17;5.55;;;4.35;;
14526;SDS011;7350;51.208;4.238;2023-04-26T14:33:44;10.60;;;4.50;;
14526;SDS011;7350;51.208;4.238;2023-04-26T14:36:11;14.50;;;4.70;;
14526;SDS011;7350;51.208;4.238;2023-04-26T14:38:40;12.25;;;4.78;;
14526;SDS011;7350;51.208;4.238;2023-04-26T14:41:08;11.48;;;4.70;;
14526;SDS011;7350;51.208;4.238;2023-04-26T14:43:35;15.10;;;5.10;;
14526;SDS011;7350;51.208;4.238;2023-04-26T14:46:02;18.17;;;4.68;;
14526;SDS011;7350;51.208;4.238;2023-04-26T14:48:29;14.10;;;4.75;;
14526;SDS011;7350;51.208;4.238;2023-04-26T14:50:59;15.80;;;4.97;;
14526;SDS011;7350;51.208;4.238;2023-04-26T14:53:26;15.25;;;5.03;;
14526;SDS011;7350;51.208;4.238;2023-04-26T14:55:55;8.63;;;4.15;;
14526;SDS011;7350;51.208;4.238;2023-04-26T14:58:22;11.70;;;4.07;;
14526;SDS011;7350;51.208;4.238;2023-04-26T15:00:49;12.38;;;5.20;;
14526;SDS011;7350;51.208;4.238;2023-04-26T15:03:16;16.38;;;4.63;;
14526;SDS011;7350;51.208;4.238;2023-04-26T15:05:43;11.13;;;3.58;;
14526;SDS011;7350;51.208;4.238;2023-04-26T15:08:10;15.23;;;3.80;;
14526;SDS011;7350;51.208;4.238;2023-04-26T15:10:38;5.80;;;3.15;;
14526;SDS011;7350;51.208;4.238;2023-04-26T15:13:07;11.45;;;3.55;;
14526;SDS011;7350;51.208;4.238;2023-04-26T15:15:34;10.60;;;3.60;;
14526;SDS011;7350;51.208;4.238;2023-04-26T15:18:01;8.05;;;3.22;;
14526;SDS011;7350;51.208;4.238;2023-04-26T15:20:27;10.65;;;3.80;;
14526;SDS011;7350;51.208;4.238;2023-04-26T15:22:54;8.63;;;3.40;;